Time;durP1;ratioP1;P1;durP2;ratioP2;P2;SDS_P1;SDS_P2;PMS_P1;PMS_P2;Temp;Humidity;BMP_temperature;BMP_pressure;BME280_temperature;BME280_humidity;BME280_pressure;Samples;Min_cycle;Max_cycle;Signal;HPM_P1;HPM_P2
2022/12/30 00:01:59;;;;;;;15.23;3.05;;;;;;;6.21;100.00;101065.56;5203912;28;20107;-81
2022/12/30 00:04:30;;;;;;;18.25;3.05;;;;;;;6.17;100.00;101062.28;5203847;28;20057;-81
2022/12/30 00:07:00;;;;;;;30.35;2.63;;;;;;;6.15;100.00;101058.94;5204375;28;20112;-81
2022/12/30 00:09:31;;;;;;;21.10;3.30;;;;;;;6.16;100.00;101063.28;5205322;28;20025;-81
2022/12/30 00:33:06;;;;;;;15.35;2.90;;;;;;;6.18;100.00;101052.50;5204199;28;20054;-81
2022/12/30 00:35:22;;;;;;;12.38;2.78;;;;;;;6.05;100.00;101063.38;5197797;28;20021;-78
2022/12/30 00:37:52;;;;;;;17.55;3.15;;;;;;;5.97;100.00;101057.84;5208909;28;20025;-78
2022/12/30 00:40:23;;;;;;;18.13;2.92;;;;;;;5.94;100.00;101056.31;5209082;28;20029;-78
2022/12/30 00:43:08;;;;;;;21.42;3.88;;;;;;;5.86;100.00;101057.88;5208969;28;20043;-78
2022/12/30 00:45:41;;;;;;;13.77;2.28;;;;;;;5.86;100.00;101066.72;5208872;28;20037;-77
2022/12/30 00:56:38;;;;;;;17.58;3.38;;;;;;;5.78;100.00;101074.53;5208106;28;20390;-78
2022/12/30 00:59:09;;;;;;;25.70;3.45;;;;;;;5.81;100.00;101078.75;5211773;28;20087;-79
2022/12/30 01:01:40;;;;;;;10.98;2.40;;;;;;;5.81;100.00;101079.56;5209414;28;20353;-78
2022/12/30 01:04:10;;;;;;;16.33;2.55;;;;;;;5.78;100.00;101077.19;5218231;28;20033;-78
2022/12/30 01:06:40;;;;;;;20.17;2.90;;;;;;;5.76;100.00;101071.13;5209045;28;20029;-77
2022/12/30 01:09:11;;;;;;;13.82;2.47;;;;;;;5.75;100.00;101076.59;5210603;28;20049;-78
2022/12/30 01:11:41;;;;;;;7.85;2.28;;;;;;;5.84;100.00;101079.34;5216418;28;20052;-77
2022/12/30 01:14:12;;;;;;;16.73;2.53;;;;;;;5.82;100.00;101080.41;5222544;28;20361;-78
2022/12/30 01:16:42;;;;;;;16.00;2.42;;;;;;;5.77;100.00;101085.28;5222631;28;20013;-78
2022/12/30 01:19:12;;;;;;;15.13;2.47;;;;;;;5.67;100.00;101078.09;5227037;28;20029;-78
2022/12/30 01:21:43;;;;;;;24.15;2.70;;;;;;;5.58;100.00;101073.53;5227087;28;20043;-78
2022/12/30 01:24:13;;;;;;;21.30;3.65;;;;;;;5.52;100.00;101073.19;5215259;28;20036;-79
2022/12/30 01:26:44;;;;;;;21.17;3.55;;;;;;;5.46;100.00;101072.72;5212062;28;20048;-78
2022/12/30 01:29:36;;;;;;;18.00;2.55;;;;;;;5.46;100.00;101079.88;5211614;28;20195;-78
2022/12/30 01:32:10;;;;;;;18.63;2.67;;;;;;;5.50;100.00;101088.44;5212680;28;20033;-78
2022/12/30 01:34:40;;;;;;;17.70;3.45;;;;;;;5.46;100.00;101094.03;5211295;28;20398;-79
2022/12/30 01:37:12;;;;;;;20.30;2.47;;;;;;;5.42;100.00;101105.91;5210646;28;20032;-78
2022/12/30 01:39:43;;;;;;;19.23;3.58;;;;;;;5.38;100.00;101106.28;5204857;28;20030;-78
2022/12/30 01:42:24;;;;;;;22.15;2.72;;;;;;;5.38;100.00;101117.78;5203682;28;20167;-78
2022/12/30 01:45:00;;;;;;;17.13;2.88;;;;;;;5.37;100.00;101112.56;5205823;28;20179;-78
2022/12/30 01:47:46;;;;;;;18.80;2.70;;;;;;;5.35;100.00;101114.50;5206614;28;20048;-78
2022/12/30 01:50:26;;;;;;;14.07;2.15;;;;;;;5.37;100.00;101117.88;5205197;28;20033;-78
2022/12/30 01:53:17;;;;;;;19.10;2.72;;;;;;;5.28;100.00;101108.03;5206419;28;20045;-78
2022/12/30 01:55:50;;;;;;;21.80;2.75;;;;;;;5.19;100.00;101110.44;5205304;28;20037;-78
2022/12/30 01:58:30;;;;;;;20.67;3.00;;;;;;;5.10;100.00;101105.88;5206687;28;20486;-78
2022/12/30 02:01:01;;;;;;;17.25;3.03;;;;;;;5.02;100.00;101112.78;5206857;28;20056;-78
2022/12/30 02:03:39;;;;;;;20.60;3.00;;;;;;;5.01;100.00;101108.44;5208839;28;20022;-79
2022/12/30 02:06:09;;;;;;;17.40;2.63;;;;;;;4.99;100.00;101103.25;5210532;28;20354;-79
2022/12/30 02:08:40;;;;;;;12.60;2.67;;;;;;;4.94;100.00;101095.63;5213525;28;20088;-78
2022/12/30 02:11:11;;;;;;;17.23;2.53;;;;;;;4.89;100.00;101095.16;5221208;28;20072;-78
2022/12/30 02:13:41;;;;;;;27.40;3.63;;;;;;;4.85;100.00;101096.38;5221733;28;20025;-78
2022/12/30 02:16:34;;;;;;;14.52;2.58;;;;;;;4.87;100.00;101091.78;5221427;28;20029;-78
2022/12/30 02:19:25;;;;;;;19.42;3.55;;;;;;;4.83;100.00;101082.38;5216696;28;20485;-79
2022/12/30 02:22:08;;;;;;;17.38;2.70;;;;;;;4.83;100.00;101081.53;5212856;28;20034;-79
2022/12/30 02:24:54;;;;;;;22.98;3.75;;;;;;;4.79;100.00;101086.25;5211051;28;20021;-78
2022/12/30 02:27:52;;;;;;;15.25;3.15;;;;;;;4.79;100.00;101080.09;5211493;28;20056;-78
2022/12/30 02:30:35;;;;;;;16.33;2.70;;;;;;;4.78;100.00;101081.91;5209300;28;20052;-79
2022/12/30 02:33:32;;;;;;;19.38;4.28;;;;;;;4.75;100.00;101062.69;5210337;28;20034;-78
2022/12/30 02:36:52;;;;;;;21.45;3.30;;;;;;;4.72;100.00;101069.09;5175383;28;20046;-78
2022/12/30 02:39:35;;;;;;;22.40;3.08;;;;;;;4.72;100.00;101066.44;5166811;28;20042;-78
2022/12/30 02:45:07;;;;;;;26.23;3.28;;;;;;;4.54;100.00;101067.91;5210670;28;20033;-78
2022/12/30 02:47:49;;;;;;;15.68;2.00;;;;;;;4.47;100.00;101064.91;5208570;28;20032;-79
2022/12/30 02:53:19;;;;;;;16.97;2.50;;;;;;;4.31;100.00;101053.78;5209770;28;20056;-78
2022/12/30 02:55:51;;;;;;;17.40;4.28;;;;;;;4.24;100.00;101041.94;5210034;28;20303;-79
2022/12/30 02:58:25;;;;;;;18.27;3.03;;;;;;;4.24;100.00;101044.59;5208434;28;20021;-78
2022/12/30 03:04:21;;;;;;;23.98;3.20;;;;;;;4.24;100.00;101037.47;5209323;28;20036;-79
2022/12/30 03:07:21;;;;;;;17.65;3.25;;;;;;;4.22;100.00;101033.25;5210436;28;20421;-78
2022/12/30 03:13:19;;;;;;;;;;;;;;;4.20;100.00;101028.06;5210795;28;20021;-78
2022/12/30 03:16:07;;;;;;;22.83;3.30;;;;;;;4.18;100.00;101031.81;5208633;28;19916;-79
2022/12/30 03:18:38;;;;;;;19.95;2.80;;;;;;;4.18;100.00;101027.34;5209272;28;20044;-79
2022/12/30 03:21:11;;;;;;;22.20;3.42;;;;;;;4.14;100.00;101026.75;5217688;28;20037;-78
2022/12/30 03:29:37;;;;;;;22.88;3.10;;;;;;;4.17;100.00;101030.97;5209385;28;20052;-79
2022/12/30 03:32:13;;;;;;;27.52;2.85;;;;;;;4.21;100.00;101029.75;5209451;28;20475;-79
2022/12/30 03:34:45;;;;;;;19.23;2.70;;;;;;;4.19;100.00;101026.38;5196795;28;20040;-79
2022/12/30 03:37:18;;;;;;;24.77;2.90;;;;;;;4.14;100.00;101026.75;5208824;28;20500;-79
2022/12/30 03:39:59;;;;;;;27.95;3.20;;;;;;;4.07;100.00;101025.53;5207911;28;20041;-79
2022/12/30 03:42:31;;;;;;;33.40;3.60;;;;;;;4.09;100.00;101025.41;5209383;28;20025;-79
2022/12/30 03:45:03;;;;;;;23.55;4.65;;;;;;;4.12;100.00;101028.69;5208669;28;20033;-79
2022/12/30 03:47:34;;;;;;;18.35;3.38;;;;;;;4.13;100.00;101034.84;5208603;28;20025;-79
2022/12/30 03:50:05;;;;;;;22.45;3.47;;;;;;;4.08;100.00;101032.53;5208812;28;20037;-79
2022/12/30 03:52:35;;;;;;;26.55;3.22;;;;;;;4.03;100.00;101023.25;5208894;28;20025;-79
2022/12/30 03:55:07;;;;;;;28.08;2.80;;;;;;;3.95;100.00;101036.25;5208183;28;20028;-79
2022/12/30 03:57:37;;;;;;;24.40;3.47;;;;;;;3.96;100.00;101033.47;5209424;28;20159;-79
2022/12/30 04:00:08;;;;;;;26.15;3.47;;;;;;;4.01;100.00;101025.16;5208408;28;20025;-79
2022/12/30 04:02:39;;;;;;;22.35;2.97;;;;;;;3.99;100.00;101032.41;5208611;28;20052;-79
2022/12/30 04:05:09;;;;;;;19.50;3.17;;;;;;;3.98;100.00;101018.28;5209775;28;20033;-79
2022/12/30 04:07:40;;;;;;;28.50;3.53;;;;;;;4.05;100.00;101013.34;5213735;28;20474;-79
2022/12/30 04:10:10;;;;;;;19.48;3.72;;;;;;;4.08;100.00;101015.75;5211564;28;20025;-79
2022/12/30 04:12:41;;;;;;;32.70;4.75;;;;;;;4.09;100.00;101017.44;5213515;28;20029;-80
2022/12/30 04:15:11;;;;;;;30.45;4.43;;;;;;;4.02;100.00;101011.78;5211605;28;20371;-79
2022/12/30 04:17:42;;;;;;;20.58;3.17;;;;;;;3.99;100.00;101003.19;5212864;28;20112;-79
2022/12/30 04:20:12;;;;;;;27.80;5.18;;;;;;;3.96;100.00;101000.78;5222340;28;20112;-78
2022/12/30 04:22:43;;;;;;;25.73;3.50;;;;;;;3.90;100.00;100999.44;5213258;28;20026;-79
2022/12/30 04:25:13;;;;;;;30.50;3.67;;;;;;;3.96;100.00;101014.88;5213200;28;20036;-79
2022/12/30 04:27:44;;;;;;;22.00;3.20;;;;;;;3.95;100.00;101020.31;5212051;28;20044;-79
2022/12/30 04:30:14;;;;;;;27.00;3.95;;;;;;;3.89;100.00;101008.38;5212424;28;20108;-79
2022/12/30 04:32:45;;;;;;;23.13;3.15;;;;;;;3.89;100.00;101011.88;5211340;28;20489;-79
2022/12/30 04:35:15;;;;;;;25.50;3.17;;;;;;;3.84;100.00;101015.84;5211065;28;20040;-79
2022/12/30 04:37:48;;;;;;;23.88;4.75;;;;;;;3.83;100.00;101016.81;5212822;28;20072;-79
2022/12/30 04:40:19;;;;;;;18.48;3.95;;;;;;;3.90;100.00;101013.56;5211132;28;20404;-79
2022/12/30 04:42:49;;;;;;;19.27;3.80;;;;;;;3.92;100.00;101015.28;5212324;28;20029;-79
2022/12/30 04:45:20;;;;;;;29.65;4.90;;;;;;;3.98;100.00;100999.72;5211075;28;20431;-79
2022/12/30 04:47:50;;;;;;;34.58;4.53;;;;;;;4.02;100.00;100993.19;5212373;28;20108;-78
2022/12/30 04:50:21;;;;;;;23.40;3.92;;;;;;;4.08;100.00;100989.22;5211710;28;20029;-79
2022/12/30 04:52:51;;;;;;;25.63;4.90;;;;;;;4.15;100.00;100985.94;5211914;28;20036;-78
2022/12/30 04:55:21;;;;;;;26.30;4.00;;;;;;;4.27;100.00;100972.66;5212231;28;20032;-79
2022/12/30 04:57:52;;;;;;;30.60;5.22;;;;;;;4.31;100.00;100974.94;5211596;28;20040;-79
2022/12/30 05:00:22;;;;;;;36.20;4.72;;;;;;;4.33;100.00;100977.50;5210579;28;20508;-79
2022/12/30 05:02:53;;;;;;;19.27;4.38;;;;;;;4.33;100.00;100975.66;5212088;28;20089;-78
2022/12/30 05:05:23;;;;;;;29.40;4.63;;;;;;;4.33;100.00;100966.88;5211588;28;20109;-78
2022/12/30 05:07:54;;;;;;;35.42;4.47;;;;;;;4.37;100.00;100961.19;5210965;28;20398;-79
2022/12/30 05:10:24;;;;;;;25.00;3.95;;;;;;;4.31;100.00;100958.16;5212160;28;20108;-79
2022/12/30 05:12:55;;;;;;;33.13;4.72;;;;;;;4.34;100.00;100956.09;5212291;28;20025;-79
2022/12/30 05:15:25;;;;;;;29.10;5.00;;;;;;;4.37;100.00;100961.19;5210059;28;20029;-78
2022/12/30 05:17:56;;;;;;;15.98;4.03;;;;;;;4.33;100.00;100964.22;5211351;28;20030;-79
2022/12/30 05:20:26;;;;;;;21.45;3.88;;;;;;;4.31;100.00;100968.78;5220178;28;20079;-78
2022/12/30 05:22:57;;;;;;;28.65;4.28;;;;;;;4.32;100.00;100962.53;5211955;28;20025;-79
2022/12/30 05:28:16;;;;;;;20.17;3.92;;;;;;;4.40;100.00;100979.50;5211227;28;20052;-77
2022/12/30 05:30:47;;;;;;;27.98;3.90;;;;;;;4.43;100.00;100983.75;5209321;28;20018;-79
2022/12/30 05:33:17;;;;;;;31.02;4.75;;;;;;;4.40;100.00;100984.81;5206361;28;20017;-79
2022/12/30 05:35:48;;;;;;;25.73;4.30;;;;;;;4.41;100.00;100989.16;5203371;28;20108;-78
2022/12/30 05:38:18;;;;;;;26.02;5.25;;;;;;;4.40;100.00;100989.28;5211023;28;20057;-79
2022/12/30 05:40:50;;;;;;;25.48;4.75;;;;;;;4.37;100.00;100995.72;5210820;28;20101;-79
2022/12/30 05:43:20;;;;;;;23.38;4.25;;;;;;;4.33;100.00;100994.25;5209627;28;20127;-78
2022/12/30 05:45:51;;;;;;;27.88;3.72;;;;;;;4.36;100.00;100980.72;5209592;28;20033;-79
2022/12/30 05:48:21;;;;;;;25.55;4.38;;;;;;;4.35;100.00;100991.47;5209479;28;20037;-79
2022/12/30 05:50:52;;;;;;;21.90;4.65;;;;;;;4.36;100.00;100980.72;5210380;28;20370;-79
2022/12/30 05:53:22;;;;;;;23.88;4.93;;;;;;;4.39;100.00;100977.84;5209274;28;20083;-78
2022/12/30 05:55:53;;;;;;;25.73;4.75;;;;;;;4.43;100.00;100967.81;5210327;28;20033;-79
2022/12/30 05:58:23;;;;;;;22.65;4.60;;;;;;;4.46;100.00;100964.88;5210908;28;20017;-79
2022/12/30 06:00:56;;;;;;;29.90;4.72;;;;;;;4.49;100.00;100953.19;5208669;28;20116;-79
2022/12/30 06:03:28;;;;;;;17.90;5.03;;;;;;;4.47;100.00;100944.47;5211016;28;20041;-78
2022/12/30 06:06:02;;;;;;;20.27;5.55;;;;;;;4.51;100.00;100946.75;5210390;28;20450;-79
2022/12/30 06:08:34;;;;;;;19.15;5.38;;;;;;;4.54;100.00;100937.72;5210326;28;20111;-83
2022/12/30 06:11:05;;;;;;;17.88;4.95;;;;;;;4.58;100.00;100937.34;5211248;28;20053;-82
2022/12/30 06:13:36;;;;;;;26.45;5.38;;;;;;;4.63;100.00;100929.84;5209632;28;20029;-79
2022/12/30 06:16:06;;;;;;;25.23;4.50;;;;;;;4.64;100.00;100923.53;5208831;28;20112;-79
2022/12/30 06:18:37;;;;;;;22.25;4.55;;;;;;;4.67;100.00;100923.31;5210855;28;20041;-79
2022/12/30 06:21:07;;;;;;;30.98;5.22;;;;;;;4.77;100.00;100933.16;5220847;28;20032;-80
2022/12/30 06:23:38;;;;;;;21.95;5.10;;;;;;;4.87;100.00;100928.75;5209617;28;20033;-80
2022/12/30 06:26:08;;;;;;;21.00;4.68;;;;;;;4.87;100.00;100908.38;5206023;28;20021;-80
2022/12/30 06:28:39;;;;;;;23.45;4.20;;;;;;;4.89;100.00;100917.03;5204983;28;20443;-81
2022/12/30 06:31:09;;;;;;;20.85;3.97;;;;;;;4.97;100.00;100907.56;5205022;28;20048;-79
2022/12/30 06:33:40;;;;;;;15.68;4.55;;;;;;;4.97;100.00;100902.25;5204531;28;20140;-80
2022/12/30 06:36:11;;;;;;;26.48;3.95;;;;;;;5.03;100.00;100896.44;5204467;28;20029;-81
2022/12/30 06:38:41;;;;;;;21.92;5.15;;;;;;;5.04;100.00;100892.81;5204322;28;20367;-80
2022/12/30 06:41:11;;;;;;;17.33;3.60;;;;;;;5.07;100.00;100887.22;5204304;28;20021;-81
2022/12/30 06:43:42;;;;;;;19.63;3.58;;;;;;;5.16;100.00;100881.13;5209434;28;20060;-81
2022/12/30 06:46:12;;;;;;;18.85;4.00;;;;;;;5.15;100.00;100872.28;5209878;28;20026;-80
2022/12/30 06:48:43;;;;;;;18.02;5.25;;;;;;;5.30;100.00;100871.97;5207894;28;20052;-80
2022/12/30 06:51:13;;;;;;;10.35;3.13;;;;;;;5.39;100.00;100868.53;5204568;28;20068;-80
2022/12/30 06:53:44;;;;;;;13.75;3.70;;;;;;;5.49;100.00;100856.09;5203513;28;20386;-80
2022/12/30 06:56:14;;;;;;;10.52;3.63;;;;;;;5.56;100.00;100838.63;5205177;28;20439;-80
2022/12/30 06:58:45;;;;;;;19.90;3.83;;;;;;;5.53;100.00;100833.59;5204850;28;20156;-81
2022/12/30 07:01:15;;;;;;;17.23;3.47;;;;;;;5.56;100.00;100827.97;5204778;28;20025;-79
2022/12/30 07:03:45;;;;;;;22.52;4.70;;;;;;;5.54;100.00;100823.78;5205406;28;20032;-80
2022/12/30 07:06:16;;;;;;;12.20;2.83;;;;;;;5.53;100.00;100822.94;5203944;28;20041;-80
2022/12/30 07:08:46;;;;;;;15.32;3.35;;;;;;;5.57;100.00;100823.47;5204293;28;20537;-80
2022/12/30 07:11:17;;;;;;;7.75;2.97;;;;;;;5.59;100.00;100819.72;5203804;28;20120;-80
2022/12/30 07:13:47;;;;;;;18.33;4.05;;;;;;;5.60;100.00;100825.91;5205108;28;20026;-80
2022/12/30 07:16:18;;;;;;;12.35;2.92;;;;;;;5.60;100.00;100815.25;5204508;28;20061;-80
2022/12/30 07:18:48;;;;;;;11.23;3.00;;;;;;;5.68;100.00;100818.94;5205696;28;20105;-80
2022/12/30 07:21:19;;;;;;;14.75;2.88;;;;;;;5.76;100.00;100806.75;5212772;28;20071;-78
2022/12/30 07:23:49;;;;;;;11.55;2.50;;;;;;;5.78;100.00;100810.13;5203841;28;20021;-79
2022/12/30 07:26:20;;;;;;;11.13;2.80;;;;;;;5.87;100.00;100799.50;5205440;28;20025;-80
2022/12/30 07:28:54;;;;;;;12.85;2.40;;;;;;;5.87;100.00;100791.53;5204875;28;20044;-80
2022/12/30 07:31:24;;;;;;;12.15;2.33;;;;;;;6.05;100.00;100798.84;5205240;28;20104;-80
2022/12/30 07:33:55;;;;;;;15.60;2.72;;;;;;;6.07;100.00;100794.22;5205914;28;20115;-78
2022/12/30 07:36:25;;;;;;;12.27;2.80;;;;;;;6.13;100.00;100791.03;5205453;28;20028;-79
2022/12/30 07:38:57;;;;;;;13.13;2.60;;;;;;;6.16;100.00;100785.41;5203436;28;20520;-80
2022/12/30 07:41:28;;;;;;;8.10;2.55;;;;;;;6.12;100.00;100784.81;5204421;28;20475;-79
2022/12/30 07:43:58;;;;;;;8.98;2.08;;;;;;;6.14;100.00;100782.06;5205532;28;20052;-80
2022/12/30 07:46:29;;;;;;;8.85;2.40;;;;;;;6.22;100.00;100774.19;5204827;28;20118;-80
2022/12/30 07:48:59;;;;;;;8.65;2.50;;;;;;;6.15;100.00;100757.94;5205183;28;20037;-79
2022/12/30 07:51:30;;;;;;;8.60;2.08;;;;;;;6.17;100.00;100750.63;5204197;28;20029;-79
2022/12/30 07:54:04;;;;;;;5.90;2.03;;;;;;;6.16;100.00;100753.44;5205700;28;20051;-86
2022/12/30 07:56:36;;;;;;;8.38;2.80;;;;;;;6.12;100.00;100749.38;5205518;28;20394;-79
2022/12/30 07:59:07;;;;;;;6.82;2.38;;;;;;;6.05;100.00;100735.78;5195504;28;20017;-84
2022/12/30 08:01:38;;;;;;;5.80;2.30;;;;;;;6.00;100.00;100740.69;5196701;28;20563;-79
2022/12/30 08:04:09;;;;;;;11.82;2.90;;;;;;;6.09;100.00;100736.34;5204894;28;20022;-79
2022/12/30 08:06:39;;;;;;;6.28;2.38;;;;;;;6.12;100.00;100726.22;5205563;28;20401;-79
2022/12/30 08:09:09;;;;;;;10.45;2.72;;;;;;;6.11;100.00;100727.22;5204754;28;20021;-78
2022/12/30 08:11:40;;;;;;;12.55;2.45;;;;;;;6.17;100.00;100728.47;5205162;28;20279;-78
2022/12/30 08:14:10;;;;;;;10.25;2.47;;;;;;;6.18;100.00;100720.38;5204564;28;20041;-78
2022/12/30 08:16:41;;;;;;;5.82;2.22;;;;;;;6.20;100.00;100713.06;5204598;28;20029;-79
2022/12/30 08:19:11;;;;;;;8.30;2.40;;;;;;;6.18;100.00;100703.53;5210019;28;20440;-80
2022/12/30 08:21:42;;;;;;;11.15;2.55;;;;;;;6.21;100.00;100696.09;5209357;28;20045;-80
2022/12/30 08:24:12;;;;;;;4.85;1.83;;;;;;;6.26;100.00;100690.34;5204822;28;20079;-80
2022/12/30 08:26:43;;;;;;;7.60;2.03;;;;;;;6.30;100.00;100686.41;5205494;28;20025;-80
2022/12/30 08:29:13;;;;;;;6.70;2.15;;;;;;;6.31;100.00;100677.44;5204919;28;20071;-80
2022/12/30 08:31:49;;;;;;;4.70;1.60;;;;;;;6.33;100.00;100662.16;5204342;28;20033;-80
2022/12/30 08:34:20;;;;;;;8.15;2.30;;;;;;;6.36;100.00;100669.84;5204026;28;20036;-80
2022/12/30 08:36:51;;;;;;;8.77;2.03;;;;;;;6.40;100.00;100665.91;5205078;28;20097;-80
2022/12/30 08:39:21;;;;;;;6.63;1.98;;;;;;;6.44;100.00;100661.16;5205215;28;20121;-80
2022/12/30 08:41:52;;;;;;;7.78;2.20;;;;;;;6.49;100.00;100641.06;5203901;28;20017;-80
2022/12/30 08:44:23;;;;;;;6.15;1.92;;;;;;;6.52;100.00;100642.59;5203887;28;20498;-80
2022/12/30 08:46:54;;;;;;;8.45;2.10;;;;;;;6.58;100.00;100647.38;5204345;28;20037;-80
2022/12/30 08:49:25;;;;;;;10.32;2.10;;;;;;;6.61;100.00;100640.91;5205629;28;20029;-81
2022/12/30 08:51:55;;;;;;;4.75;1.88;;;;;;;6.66;100.00;100641.28;5207530;28;20022;-79
2022/12/30 08:54:25;;;;;;;9.68;2.75;;;;;;;6.71;100.00;100641.69;5209248;28;20040;-80
2022/12/30 08:56:56;;;;;;;6.53;1.65;;;;;;;6.74;100.00;100633.41;5209576;28;20029;-80
2022/12/30 08:59:26;;;;;;;9.43;2.10;;;;;;;6.78;100.00;100637.47;5208841;28;20033;-80
2022/12/30 09:01:57;;;;;;;7.00;1.85;;;;;;;6.80;100.00;100626.66;5208873;28;20033;-80
2022/12/30 09:04:28;;;;;;;7.28;1.73;;;;;;;6.82;100.00;100628.16;5207627;28;20021;-80
2022/12/30 09:06:58;;;;;;;5.18;1.88;;;;;;;6.95;100.00;100631.34;5208015;28;20113;-80
2022/12/30 09:09:29;;;;;;;7.82;2.70;;;;;;;6.97;100.00;100624.03;5209647;28;20437;-81
2022/12/30 09:12:00;;;;;;;6.80;2.30;;;;;;;7.01;100.00;100625.41;5209074;28;20029;-84
2022/12/30 09:14:31;;;;;;;8.23;1.55;;;;;;;7.06;100.00;100634.81;5209195;28;20096;-82
2022/12/30 09:17:01;;;;;;;9.00;1.77;;;;;;;7.10;100.00;100628.19;5209463;28;20462;-81
2022/12/30 09:19:32;;;;;;;6.65;2.10;;;;;;;7.12;100.00;100628.88;5216873;28;20040;-81
2022/12/30 09:22:02;;;;;;;6.43;1.90;;;;;;;7.16;100.00;100623.09;5211778;28;20052;-82
2022/12/30 09:24:33;;;;;;;6.63;1.90;;;;;;;7.20;100.00;100621.81;5210067;28;20033;-82
2022/12/30 09:27:04;;;;;;;6.30;1.55;;;;;;;7.24;100.00;100617.84;5208928;28;20029;-82
2022/12/30 09:29:34;;;;;;;7.68;1.80;;;;;;;7.27;100.00;100606.03;5209509;28;20437;-82
2022/12/30 09:32:04;;;;;;;8.65;2.00;;;;;;;7.33;100.00;100604.56;5208659;28;20028;-82
2022/12/30 09:34:35;;;;;;;8.85;1.98;;;;;;;7.34;100.00;100600.94;5208059;28;20390;-82
2022/12/30 09:37:06;;;;;;;24.77;2.15;;;;;;;7.32;100.00;100581.56;5208922;28;20025;-81
2022/12/30 09:39:36;;;;;;;11.07;1.90;;;;;;;7.35;100.00;100582.09;5208527;28;20017;-82
2022/12/30 09:45:19;;;;;;;24.25;4.03;;;;;;;7.48;100.00;100565.69;5196682;28;20125;-80
2022/12/30 09:47:57;;;;;;;12.65;1.70;;;;;;;7.51;100.00;100566.22;5208814;28;20038;-80
2022/12/30 09:50:40;;;;;;;14.48;1.98;;;;;;;7.54;100.00;100549.09;5207684;28;20025;-80
2022/12/30 09:53:19;;;;;;;10.60;1.95;;;;;;;7.58;100.00;100539.78;5208860;28;20507;-80
2022/12/30 09:55:56;;;;;;;3.65;1.10;;;;;;;7.55;100.00;100528.56;5207926;28;20039;-80
2022/12/30 09:58:33;;;;;;;8.57;1.98;;;;;;;7.68;100.00;100534.31;5208894;28;20029;-80
2022/12/30 10:01:27;;;;;;;12.48;1.73;;;;;;;7.69;100.00;100523.50;5207784;28;20021;-80
2022/12/30 10:03:59;;;;;;;15.18;1.80;;;;;;;7.75;100.00;100519.38;5208673;28;20021;-80
2022/12/30 10:06:37;;;;;;;6.72;1.42;;;;;;;7.78;100.00;100511.03;5209023;28;20025;-80
2022/12/30 10:09:25;;;;;;;6.95;1.30;;;;;;;7.81;100.00;100507.22;5208992;28;20017;-80
2022/12/30 10:12:14;;;;;;;5.60;1.35;;;;;;;7.83;100.00;100497.22;5208466;28;20037;-81
2022/12/30 10:15:03;;;;;;;6.22;1.40;;;;;;;7.86;100.00;100480.88;5206399;28;20036;-80
2022/12/30 10:17:39;;;;;;;9.75;2.00;;;;;;;7.99;100.00;100473.31;5186626;28;20124;-80
2022/12/30 10:20:39;;;;;;;12.35;2.03;;;;;;;8.03;100.00;100475.50;5213072;28;20186;-80
2022/12/30 10:23:18;;;;;;;10.40;1.90;;;;;;;8.04;100.00;100461.13;5206761;28;20112;-80
2022/12/30 10:25:57;;;;;;;8.98;1.90;;;;;;;8.08;100.00;100453.63;5206418;28;20033;-80
2022/12/30 10:28:35;;;;;;;9.77;1.55;;;;;;;8.09;100.00;100468.69;5207338;28;20486;-81
2022/12/30 10:31:11;;;;;;;8.88;2.50;;;;;;;8.20;100.00;100465.72;5207863;28;20398;-81
2022/12/30 10:33:41;;;;;;;9.57;1.90;;;;;;;8.19;100.00;100461.38;5208136;28;20382;-80
2022/12/30 10:36:17;;;;;;;9.48;1.40;;;;;;;8.19;100.00;100442.66;5207299;28;20027;-80
2022/12/30 10:38:47;;;;;;;;;;;;;;;8.24;100.00;100444.88;5207534;28;20025;-80
2022/12/30 10:41:35;;;;;;;7.20;1.98;;;;;;;8.29;100.00;100438.03;5207411;28;19962;-81
2022/12/30 10:44:25;;;;;;;14.05;1.90;;;;;;;8.31;100.00;100424.50;5205633;28;20025;-80
2022/12/30 10:47:05;;;;;;;12.73;1.90;;;;;;;8.31;100.00;100408.47;5209256;28;20029;-81
2022/12/30 10:49:57;;;;;;;15.70;1.98;;;;;;;8.40;100.00;100396.84;5208869;28;20100;-80
2022/12/30 10:52:28;;;;;;;14.32;2.78;;;;;;;8.46;100.00;100390.81;5209263;28;20044;-80
2022/12/30 10:54:58;;;;;;;8.05;1.88;;;;;;;8.50;100.00;100377.97;5200991;28;20029;-80
2022/12/30 10:57:34;;;;;;;17.08;2.53;;;;;;;8.50;100.00;100359.25;5207964;28;20021;-81
2022/12/30 11:00:06;;;;;;;9.18;2.17;;;;;;;8.56;100.00;100358.59;5207816;28;20029;-81
2022/12/30 11:02:37;;;;;;;11.57;1.95;;;;;;;8.57;100.00;100350.41;5209254;28;20059;-81
2022/12/30 11:05:29;;;;;;;13.55;2.45;;;;;;;8.68;100.00;100319.00;5208170;28;20021;-81
2022/12/30 11:08:06;;;;;;;8.43;1.73;;;;;;;8.72;100.00;100310.47;5207206;28;20033;-81
2022/12/30 11:10:36;;;;;;;14.75;2.80;;;;;;;8.76;100.00;100297.59;5206994;28;20027;-81
2022/12/30 11:16:04;;;;;;;12.55;1.98;;;;;;;8.83;100.00;100282.53;5203694;28;20044;-81
2022/12/30 11:18:35;;;;;;;8.68;1.83;;;;;;;8.84;100.00;100270.03;5203451;28;20025;-80
2022/12/30 11:21:09;;;;;;;14.25;2.53;;;;;;;8.82;100.00;100267.50;5212788;28;20108;-80
2022/12/30 11:23:40;;;;;;;8.45;1.98;;;;;;;8.80;100.00;100261.50;5203115;28;20025;-80
2022/12/30 11:26:22;;;;;;;9.23;2.00;;;;;;;8.85;100.00;100248.47;5203632;28;20033;-80
2022/12/30 11:28:54;;;;;;;9.13;1.73;;;;;;;8.88;100.00;100240.06;5203606;28;20033;-80
2022/12/30 11:31:35;;;;;;;6.68;1.50;;;;;;;8.87;100.00;100233.06;5203649;28;20044;-81
2022/12/30 11:34:06;;;;;;;6.97;2.15;;;;;;;8.82;100.00;100211.34;5203905;28;20028;-80
2022/12/30 11:36:36;;;;;;;9.35;1.85;;;;;;;8.81;100.00;100220.38;5203838;28;20394;-81
2022/12/30 11:39:07;;;;;;;7.93;1.67;;;;;;;8.68;100.00;100212.03;5202760;28;20028;-81
2022/12/30 11:41:48;;;;;;;10.65;2.05;;;;;;;8.60;100.00;100214.72;5202829;28;20565;-81
2022/12/30 11:44:31;;;;;;;9.20;2.25;;;;;;;8.53;100.00;100204.72;5203500;28;20101;-79
2022/12/30 11:47:06;;;;;;;6.32;1.80;;;;;;;8.44;100.00;100200.38;5203027;28;20318;-84
2022/12/30 11:49:48;;;;;;;7.15;2.30;;;;;;;8.38;100.00;100200.19;5205062;28;20028;-83
2022/12/30 11:52:25;;;;;;;8.90;1.77;;;;;;;8.28;100.00;100198.50;5203795;28;20030;-84
2022/12/30 11:55:03;;;;;;;8.07;1.83;;;;;;;8.24;100.00;100193.66;5193101;28;20510;-81
2022/12/30 11:57:40;;;;;;;11.70;2.30;;;;;;;8.16;100.00;100180.28;5204453;28;20025;-82
2022/12/30 12:00:17;;;;;;;12.32;1.90;;;;;;;8.11;100.00;100172.78;5203019;28;20521;-82
2022/12/30 12:03:00;;;;;;;5.75;1.63;;;;;;;8.05;100.00;100162.75;5204534;28;20036;-80
2022/12/30 12:05:39;;;;;;;5.57;2.00;;;;;;;8.02;100.00;100158.56;5203727;28;20022;-81
2022/12/30 12:08:29;;;;;;;11.27;2.30;;;;;;;8.03;100.00;100143.38;5203026;28;20025;-81
2022/12/30 12:11:09;;;;;;;7.28;1.88;;;;;;;7.94;100.00;100134.56;5204412;28;20402;-80
2022/12/30 12:14:04;;;;;;;9.93;1.35;;;;;;;7.97;100.00;100110.16;5204133;28;20111;-80
2022/12/30 12:17:01;;;;;;;9.20;1.73;;;;;;;7.91;100.00;100093.97;5201729;28;20471;-80
2022/12/30 12:19:49;;;;;;;10.43;1.60;;;;;;;7.87;100.00;100077.44;5202662;28;20049;-80
2022/12/30 12:22:29;;;;;;;9.10;1.40;;;;;;;7.88;100.00;100057.78;5203907;28;20037;-80
2022/12/30 12:25:09;;;;;;;6.50;1.50;;;;;;;7.87;100.00;100041.91;5204301;28;20048;-80
2022/12/30 12:27:40;;;;;;;7.55;1.65;;;;;;;7.92;100.00;100018.19;5206926;28;20029;-80
2022/12/30 12:30:12;;;;;;;12.55;2.03;;;;;;;7.92;100.00;100007.50;5206794;28;20056;-80
2022/12/30 12:33:08;;;;;;;6.05;1.63;;;;;;;7.98;100.00;99997.00;5208289;28;20027;-80
2022/12/30 12:35:50;;;;;;;4.78;1.63;;;;;;;7.98;100.00;99994.34;5196896;28;20446;-80
2022/12/30 12:38:27;;;;;;;4.43;1.13;;;;;;;7.98;100.00;99977.44;5206841;28;20025;-80
2022/12/30 12:41:09;;;;;;;8.00;1.58;;;;;;;8.03;100.00;99956.41;5207422;28;20025;-80
2022/12/30 12:43:42;;;;;;;4.18;1.05;;;;;;;8.04;100.00;99950.06;5206628;28;20237;-80
2022/12/30 12:46:34;;;;;;;7.03;1.55;;;;;;;8.05;100.00;99947.22;5207607;28;20094;-80
2022/12/30 12:49:37;;;;;;;5.28;1.30;;;;;;;8.02;100.00;99939.53;5207330;28;20044;-80